FLIGHT DETAILS
Pilot: NATO200 Andrea Bof Aircraft: WILCO_TECNAM_P2006T_70-41 Distance: 158NM
Departure LIRL Arrival LIBP Duration 01:09
Validation Validated Type Charter Tail Number 55207
ZFW 2547 Block Fuel/Initial FOB 82/0 Flight Fuel 67
Passengers 0 Cargo 0 Alternate
Departure Time Cruise Speed Flight Level
Flight Type VFR Aircraft Type Weight Unit Lbs
Date 17-08-2018 Pilot Comments Network IVAO
Crashed No Validator Comments Flight Rating 100

 ROUTE
ROUTE
REMARKS
 FLIGHT FAILURES
Crashed OK Beacon off & Engine Running Fail KIAS Above 250 below 10000 FT OK
Lights OFF below 10000 FT OK Lights ON above 10000 FT OK Stall OK
Overspeed OK Flight paused OK Refueling OK
Slew detected OK Taxi & Taxi lights off OK Take off & lights off OK
Landing & lights off OK Landed in not planned airport OK Taxi Speed Fail
Wrong altimeter in Take off OK Wrong altimeter in Landing OK
 LANDING ANALYSIS
Landing wind 225º/3 kt Landing heading 248
Landing VS: -89.97 ft/min Landing IAS: 59.18 kt
Landing Force G 1.1 G Landing Bank 2.8
Landing Pitch 5.3 Landing Flaps 4
Navigation Lights ON Landing Lights ON
Beacon Lights OFF Strobe Lights ON
 FLIGHT MAP
 ALTITUDE CHART
 FLIGHT FINANCIAL REPORT
Charter Flight :LIRL - LIBP 0.00
TOTAL 0.00
 MAIN EVENTS
DATE EVENTIASALTITUDE
2018-08-17 13:40:16 SIM ACARS version 1.4.1495
2018-08-17 13:40:16 BOARDING495
2018-08-17 13:41:03 STARTING ENGINE 1 495
2018-08-17 13:41:03 BEACON LIGHT OFF & ENGINE ON495
2018-08-17 13:43:21 FLAPS SET TO POSITION 1495
2018-08-17 13:43:49 STARTING ENGINE 2 495
2018-08-17 13:43:50 STOPPING ENGINE 2 495
2018-08-17 13:43:56 STOPPING ENGINE 1 495
2018-08-17 13:44:03 STARTING ENGINE 2 495
2018-08-17 13:44:04 STOPPING ENGINE 2 495
2018-08-17 13:44:04 STARTING ENGINE 1 495
2018-08-17 13:44:06 STOPPING ENGINE 1 495
2018-08-17 13:44:11 STARTING ENGINE 1 495
2018-08-17 13:44:26 STOPPING ENGINE 1 495
2018-08-17 13:44:34 STARTING ENGINE 1 495
2018-08-17 13:44:41 STARTING ENGINE 2 495
2018-08-17 13:44:42 STOPPING ENGINE 2 495
2018-08-17 13:44:49 STARTING ENGINE 2 495
2018-08-17 13:44:50 STOPPING ENGINE 2 495
2018-08-17 13:45:01 STOPPING ENGINE 1 495
2018-08-17 13:45:13 STARTING ENGINE 1 495
2018-08-17 13:45:30 STOPPING ENGINE 1 495
2018-08-17 13:45:32 STARTING ENGINE 1 495
2018-08-17 13:45:34 STARTING ENGINE 2 495
2018-08-17 13:45:35 STOPPING ENGINE 2 495
2018-08-17 13:45:46 STARTING ENGINE 2 495
2018-08-17 13:45:47 STOPPING ENGINE 2 495
2018-08-17 13:45:48 STARTING ENGINE 2 495
2018-08-17 13:45:48 STOPPING ENGINE 2 495
2018-08-17 13:45:49 STARTING ENGINE 2 495
2018-08-17 13:45:49 STOPPING ENGINE 2 495
2018-08-17 13:45:49 STARTING ENGINE 2 495
2018-08-17 13:45:50 STOPPING ENGINE 2 495
2018-08-17 13:45:50 STARTING ENGINE 2 495
2018-08-17 13:45:50 STOPPING ENGINE 2 495
2018-08-17 13:45:52 STARTING ENGINE 2 495
2018-08-17 13:47:38 TAXI TO THE RWY 1095
2018-08-17 13:54:47 ROLLING FOR TAKE OFF4695
2018-08-17 13:54:58 TAKE OFF11096
2018-08-17 13:55:02 GEAR UP118118
2018-08-17 13:55:12 FLAPS SET TO POSITION 0132181
2018-08-17 13:56:38 CRUISE133870
2018-08-17 13:57:57 STOPPING ENGINE 1 150894
2018-08-17 13:57:57 STOPPING ENGINE 2 150894
2018-08-17 13:58:23 STARTING ENGINE 2 84794
2018-08-17 13:58:24 STARTING ENGINE 1 84783
2018-08-17 13:58:25 STOPPING ENGINE 2 84772
2018-08-17 13:58:25 STOPPING ENGINE 1 84760
2018-08-17 13:58:28 DESCEND85716
2018-08-17 13:58:36 STARTING ENGINE 1 87560
2018-08-17 13:58:37 STOPPING ENGINE 1 87553
2018-08-17 13:58:37 STARTING ENGINE 1 87550
2018-08-17 13:58:38 STOPPING ENGINE 1 87538
2018-08-17 13:58:38 STARTING ENGINE 1 87533
2018-08-17 13:58:39 STOPPING ENGINE 1 88518
2018-08-17 13:58:39 STARTING ENGINE 1 88514
2018-08-17 13:58:40 STOPPING ENGINE 1 88501
2018-08-17 13:58:40 STARTING ENGINE 1 88497
2018-08-17 13:58:40 STOPPING ENGINE 1 88487
2018-08-17 13:58:40 STARTING ENGINE 1 88484
2018-08-17 13:59:04 STARTING ENGINE 2 94382
2018-08-17 13:59:05 STOPPING ENGINE 2 94389
2018-08-17 13:59:33 GEAR DOWN97528
2018-08-17 13:59:49 STARTING ENGINE 2 96559
2018-08-17 13:59:50 STOPPING ENGINE 2 96556
2018-08-17 13:59:50 STARTING ENGINE 2 96556
2018-08-17 13:59:51 STOPPING ENGINE 2 96555
2018-08-17 13:59:51 STARTING ENGINE 2 97554
2018-08-17 13:59:52 STOPPING ENGINE 2 97551
2018-08-17 13:59:52 STARTING ENGINE 2 97551
2018-08-17 13:59:52 STOPPING ENGINE 2 97550
2018-08-17 13:59:52 STARTING ENGINE 2 97549
2018-08-17 13:59:53 STOPPING ENGINE 2 97549
2018-08-17 13:59:53 STARTING ENGINE 2 97548
2018-08-17 13:59:54 STOPPING ENGINE 2 98543
2018-08-17 13:59:54 STARTING ENGINE 2 98542
2018-08-17 14:00:41 FLAPS SET TO POSITION 1105706
2018-08-17 14:00:58 CRUISE99618
2018-08-17 14:01:38 DESCEND92470
2018-08-17 14:02:08 CRUISE91391
2018-08-17 14:03:28 DESCEND107199
2018-08-17 14:03:56 LANDING9596
2018-08-17 14:04:10 GEAR UP127109
2018-08-17 14:04:12 FLAPS SET TO POSITION 0128126
2018-08-17 14:04:13 TAKE OFF129145
2018-08-17 14:08:38 CRUISE1382531
2018-08-17 14:09:18 CLIMBING1292834
2018-08-17 14:15:48 CRUISE1256623
2018-08-17 14:22:48 DESCEND1106283
2018-08-17 14:25:58 CRUISE1204530
2018-08-17 14:30:38 CLIMBING964602
2018-08-17 14:33:58 CRUISE1326544
2018-08-17 14:55:18 DESCEND1356239
2018-08-17 15:00:05 STOPPING ENGINE 1 1463140
2018-08-17 15:00:06 STOPPING ENGINE 2 1463140
2018-08-17 15:00:17 STARTING ENGINE 1 1132998
2018-08-17 15:00:17 STOPPING ENGINE 1 1122995
2018-08-17 15:00:18 STARTING ENGINE 1 1122992
2018-08-17 15:00:18 STOPPING ENGINE 1 1112989
2018-08-17 15:00:18 STARTING ENGINE 1 1102983
2018-08-17 15:00:19 STOPPING ENGINE 1 1102978
2018-08-17 15:00:19 STARTING ENGINE 1 1092976
2018-08-17 15:00:19 STOPPING ENGINE 1 1092974
2018-08-17 15:00:20 STARTING ENGINE 1 1082966
2018-08-17 15:00:20 STOPPING ENGINE 1 1082963
2018-08-17 15:00:20 STARTING ENGINE 1 1072960
2018-08-17 15:00:20 STOPPING ENGINE 1 1072958
2018-08-17 15:00:21 STARTING ENGINE 1 1062950
2018-08-17 15:01:28 STARTING ENGINE 2 1112561
2018-08-17 15:01:28 STOPPING ENGINE 2 1112531
2018-08-17 15:01:28 CRUISE1112531
2018-08-17 15:01:29 STARTING ENGINE 2 1112531
2018-08-17 15:01:29 STOPPING ENGINE 2 1112531
2018-08-17 15:01:29 STARTING ENGINE 2 1112531
2018-08-17 15:01:30 STOPPING ENGINE 2 1112531
2018-08-17 15:01:31 STARTING ENGINE 2 1112531
2018-08-17 15:01:31 STOPPING ENGINE 2 1112531
2018-08-17 15:01:31 STARTING ENGINE 2 1112531
2018-08-17 15:02:18 DESCEND1402354
2018-08-17 15:02:20 STOPPING ENGINE 1 1412334
2018-08-17 15:04:09 GEAR DOWN931021
2018-08-17 15:04:10 FLAPS SET TO POSITION 1931006
2018-08-17 15:04:12 FLAPS SET TO POSITION 291991
2018-08-17 15:04:13 FLAPS SET TO POSITION 390975
2018-08-17 15:04:15 FLAPS SET TO POSITION 487954
2018-08-17 15:07:04 LANDING5949
2018-08-17 15:07:31 TAXI TO THE GATE2048
2018-08-17 15:07:42 STOPPING ENGINE 2 848
2018-08-17 15:08:03 STARTING ENGINE 2 048
2018-08-17 15:08:04 STOPPING ENGINE 2 048
2018-08-17 15:08:04 STARTING ENGINE 1 048
2018-08-17 15:08:05 STOPPING ENGINE 1 048
2018-08-17 15:08:13 STARTING ENGINE 1 048
2018-08-17 15:09:16 STARTING ENGINE 2 048
2018-08-17 15:09:26 TAXI SPEED ABOVE 25 KTS2148
2018-08-17 15:10:05 STOPPING ENGINE 1 048
2018-08-17 15:10:25 STOPPING ENGINE 2 048
2018-08-17 15:10:31 STARTING ENGINE 2 048
2018-08-17 15:12:38 STARTING ENGINE 1 348
2018-08-17 15:13:35 STOPPING ENGINE 2 348
2018-08-17 15:13:44 STARTING ENGINE 2 348
2018-08-17 15:13:49 STOPPING ENGINE 1 348
 ACARS DATA
DATE IASGSALTITUDEFUEL CONSUMED OATFLIGHT STATUS
2018-08-17 13:41:153095129BOARDING
2018-08-17 13:42:153095129BOARDING
2018-08-17 13:43:153095129BOARDING
2018-08-17 13:44:163095129BOARDING
2018-08-17 13:45:153095129BOARDING
2018-08-17 13:46:163095129BOARDING
2018-08-17 13:47:160095129BOARDING
2018-08-17 13:48:1612995129TAXI TO THE RWY
2018-08-17 13:49:165795229TAXI TO THE RWY
2018-08-17 13:50:160095229TAXI TO THE RWY
2018-08-17 13:51:150295229TAXI TO THE RWY
2018-08-17 13:52:150095329TAXI TO THE RWY
2018-08-17 13:53:163095329TAXI TO THE RWY
2018-08-17 13:54:154295329TAXI TO THE RWY
2018-08-17 13:55:16138140197529CLIMBING
2018-08-17 13:56:16137139675628CLIMBING
2018-08-17 13:57:151361441002728CRUISE
2018-08-17 13:58:169297854828CRUISE
2018-08-17 13:59:159396439928DESCEND
2018-08-17 14:00:151151226191028DESCEND
2018-08-17 14:01:1591955681128CRUISE
2018-08-17 14:02:1688893951128CRUISE
2018-08-17 14:03:151031042821228CRUISE
2018-08-17 14:04:151301311821329CLIMBING
2018-08-17 14:05:15991019761428CLIMBING
2018-08-17 14:06:1711211715451527CLIMBING
2018-08-17 14:07:1513814719171626CLIMBING
2018-08-17 14:08:1513114024711823CLIMBING
2018-08-17 14:09:1512913928032022CRUISE
2018-08-17 14:10:1512113234882120CLIMBING
2018-08-17 14:11:1611713041772318CLIMBING
2018-08-17 14:12:1611512948662417CLIMBING
2018-08-17 14:13:1511112755572515CLIMBING
2018-08-17 14:14:1510812562452613CLIMBING
2018-08-17 14:15:1512013466512712CLIMBING
2018-08-17 14:16:1512814566182912CRUISE
2018-08-17 14:17:1512914566193012CRUISE
2018-08-17 14:18:1512814666273112CRUISE
2018-08-17 14:19:1512614666343212CRUISE
2018-08-17 14:20:1512714666233312CRUISE
2018-08-17 14:21:1512814666213412CRUISE
2018-08-17 14:22:1512814766223512CRUISE
2018-08-17 14:23:1510211759963514DESCEND
2018-08-17 14:24:1511713453663616DESCEND
2018-08-17 14:25:1512714147263617DESCEND
2018-08-17 14:26:1511412545193618CRUISE
2018-08-17 14:27:1510711645253717CRUISE
2018-08-17 14:28:1510411645203718CRUISE
2018-08-17 14:29:1510211545273818CRUISE
2018-08-17 14:30:1510411545203818CRUISE
2018-08-17 14:31:1510611850643916CLIMBING
2018-08-17 14:32:1511913258094115CLIMBING
2018-08-17 14:33:1512013264654213CLIMBING
2018-08-17 14:34:1513414565294413CRUISE
2018-08-17 14:35:1513414665274513CRUISE
2018-08-17 14:36:1513614665304713CRUISE
2018-08-17 14:37:1513514765294813CRUISE
2018-08-17 14:38:1513614665265013CRUISE
2018-08-17 14:39:1513514665235113CRUISE
2018-08-17 14:40:1513514765255213CRUISE
2018-08-17 14:41:1513514665285413CRUISE
2018-08-17 14:42:1513514665275513CRUISE
2018-08-17 14:43:1513514865155713CRUISE
2018-08-17 14:44:1513514965275813CRUISE
2018-08-17 14:45:1513415065296013CRUISE
2018-08-17 14:46:1513515165296113CRUISE
2018-08-17 14:47:1513515165296213CRUISE
2018-08-17 14:48:1513515165296413CRUISE
2018-08-17 14:49:1513515065296513CRUISE
2018-08-17 14:50:1813515065306713CRUISE
2018-08-17 14:51:1513515065296813CRUISE
2018-08-17 14:52:1513415065296913CRUISE
2018-08-17 14:53:1513515065307113CRUISE
2018-08-17 14:54:1513415065307213CRUISE
2018-08-17 14:55:1513414962697314CRUISE
2018-08-17 14:56:1513615053797416DESCEND
2018-08-17 14:57:1513815149767517DESCEND
2018-08-17 14:58:1514115343297619DESCEND
2018-08-17 14:59:1514415436827621DESCEND
2018-08-17 15:00:1511712630227722DESCEND
2018-08-17 15:01:1511211925347824DESCEND
2018-08-17 15:02:1513814323807925CRUISE
2018-08-17 15:03:1511011417727927DESCEND
2018-08-17 15:04:1586919468028DESCEND
2018-08-17 15:05:1562683408029DESCEND
2018-08-17 15:06:1564702558029DESCEND
2018-08-17 15:07:154145488129LANDED
2018-08-17 15:08:1500488129TAXI TO THE GATE
2018-08-17 15:09:1501488129TAXI TO THE GATE
2018-08-17 15:10:1500488129TAXI TO THE GATE
2018-08-17 15:11:1599488229TAXI TO THE GATE
2018-08-17 15:12:1531488229TAXI TO THE GATE
2018-08-17 15:13:1520488329TAXI TO THE GATE
2018-08-17 15:14:1520488329TAXI TO THE GATE

... ... ... ... ... ...

© Copyright 2017 All Rights Reserved. Virtual NATO is in no way affiliated with NATO or any of the NATO Members

Virtual NATO is a volunteer not for profit group of friends with the common interest in promoting enjoyment and education through the simulation of military operations and procedure through the use of operating standards within several flight simulation platforms.

Powered by Virtual Airlines Manager [v2.6.2] Customized by Virtual NATO